Time;durP1;ratioP1;P1;durP2;ratioP2;P2;SDS_P1;SDS_P2;PMS_P1;PMS_P2;Temp;Humidity;BMP_temperature;BMP_pressure;BME280_temperature;BME280_humidity;BME280_pressure;Samples;Min_cycle;Max_cycle;Signal;HPM_P1;HPM_P2
2022/03/28 00:02:13;;;;;;;30.52;13.98;;;;;;;4.05;37.76;99476.00;4953664;28;20067;-75
2022/03/28 00:04:38;;;;;;;27.25;12.07;;;;;;;4.10;38.58;99475.28;4954601;28;20027;-74
2022/03/28 00:07:04;;;;;;;30.95;13.32;;;;;;;4.17;38.17;99476.03;4954385;28;20030;-74
2022/03/28 00:09:29;;;;;;;34.10;14.00;;;;;;;4.20;38.21;99472.88;4953891;28;20039;-74
2022/03/28 00:11:55;;;;;;;33.70;14.00;;;;;;;4.24;38.09;99465.13;4953953;28;20050;-74
2022/03/28 00:14:20;;;;;;;31.88;12.95;;;;;;;4.25;38.08;99469.47;4970458;28;20031;-74
2022/03/28 00:16:46;;;;;;;33.88;13.75;;;;;;;4.24;37.54;99474.06;4973899;28;20030;-74
2022/03/28 00:19:12;;;;;;;38.30;15.18;;;;;;;4.22;37.97;99472.66;4971229;28;20454;-74
2022/03/28 00:21:37;;;;;;;33.42;13.90;;;;;;;4.17;38.12;99460.59;4973180;28;20061;-74
2022/03/28 00:24:03;;;;;;;32.17;14.77;;;;;;;4.12;38.16;99473.19;4973570;28;20026;-74
2022/03/28 00:26:28;;;;;;;38.40;15.70;;;;;;;4.06;38.58;99469.50;4973593;28;20023;-74
2022/03/28 00:28:54;;;;;;;33.92;14.45;;;;;;;4.03;38.42;99464.53;4973662;28;20054;-75
2022/03/28 00:31:19;;;;;;;34.22;14.95;;;;;;;4.01;38.68;99464.78;4973334;28;20065;-75
2022/03/28 00:33:45;;;;;;;33.75;13.50;;;;;;;3.99;38.88;99457.91;4953932;28;20457;-75
2022/03/28 00:36:11;;;;;;;28.85;12.65;;;;;;;3.98;38.29;99459.78;4954153;28;20109;-75
2022/03/28 00:38:37;;;;;;;30.65;13.00;;;;;;;3.97;38.83;99452.72;4954466;28;20093;-74
2022/03/28 00:41:03;;;;;;;28.63;13.07;;;;;;;3.97;38.15;99457.28;4953821;28;20038;-75
2022/03/28 00:43:28;;;;;;;29.33;11.65;;;;;;;3.98;38.73;99445.38;4953589;28;20032;-74
2022/03/28 00:45:54;;;;;;;28.85;13.18;;;;;;;3.96;38.95;99450.22;4973527;28;20027;-74
2022/03/28 00:48:20;;;;;;;28.83;13.15;;;;;;;3.95;38.23;99448.53;4971917;28;20096;-74
2022/03/28 00:50:46;;;;;;;31.52;13.95;;;;;;;3.94;38.35;99452.31;4973141;28;20037;-75
2022/03/28 00:53:13;;;;;;;27.30;13.52;;;;;;;3.93;38.42;99458.81;4971538;28;20019;-75
2022/03/28 00:55:39;;;;;;;35.08;13.90;;;;;;;3.90;38.32;99451.13;4973221;28;20098;-75
2022/03/28 00:58:05;;;;;;;31.73;13.23;;;;;;;3.87;38.87;99452.41;4973183;28;20379;-74
2022/03/28 01:00:31;;;;;;;29.67;13.25;;;;;;;3.85;38.60;99457.22;4973121;28;20038;-74
2022/03/28 01:02:57;;;;;;;33.47;15.65;;;;;;;3.82;38.98;99452.25;4969732;28;20034;-74
2022/03/28 01:05:24;;;;;;;34.20;13.73;;;;;;;3.77;39.01;99449.41;4953951;28;20034;-74
2022/03/28 01:07:50;;;;;;;33.67;13.07;;;;;;;3.75;39.02;99443.38;4952194;28;20047;-74
2022/03/28 01:10:15;;;;;;;36.72;14.60;;;;;;;3.73;39.21;99451.75;4953525;28;20065;-74
2022/03/28 01:12:42;;;;;;;30.75;13.93;;;;;;;3.73;39.34;99438.19;4952890;28;20023;-74
2022/03/28 01:15:10;;;;;;;35.53;16.60;;;;;;;3.75;39.01;99437.94;4953806;28;20419;-74
2022/03/28 01:20:23;;;;;;;31.17;14.98;;;;;;;3.75;39.17;99427.94;4953868;28;20034;-74
2022/03/28 01:22:48;;;;;;;29.42;15.90;;;;;;;3.77;39.69;99430.41;4952748;28;20019;-74
2022/03/28 01:25:19;;;;;;;30.13;14.35;;;;;;;3.76;39.36;99421.44;4953765;28;20031;-74
2022/03/28 01:27:46;;;;;;;27.10;12.82;;;;;;;3.73;39.62;99424.63;4953609;28;20139;-74
2022/03/28 01:30:12;;;;;;;30.08;12.88;;;;;;;3.72;39.34;99426.47;4953684;28;20030;-74
2022/03/28 01:32:37;;;;;;;29.20;13.88;;;;;;;3.69;39.22;99420.69;4953066;28;20490;-74
2022/03/28 01:35:03;;;;;;;34.55;14.50;;;;;;;3.65;40.17;99414.91;4954033;28;20050;-74
2022/03/28 01:37:28;;;;;;;31.38;14.07;;;;;;;3.62;40.33;99406.38;4954084;28;20096;-74
2022/03/28 01:39:54;;;;;;;32.13;13.82;;;;;;;3.58;40.40;99406.00;4954313;28;20074;-74
2022/03/28 01:42:19;;;;;;;36.10;15.23;;;;;;;3.57;39.84;99407.88;4952380;28;20038;-75
2022/03/28 01:44:49;;;;;;;34.55;14.93;;;;;;;3.54;40.27;99399.38;4953659;28;20035;-74
2022/03/28 01:47:15;;;;;;;43.38;16.75;;;;;;;3.51;39.94;99397.94;4953441;28;21091;-74
2022/03/28 01:49:40;;;;;;;37.97;16.35;;;;;;;3.49;39.68;99391.91;4953586;28;20028;-74
2022/03/28 01:52:06;;;;;;;33.97;14.40;;;;;;;3.47;40.57;99394.00;4952675;28;20391;-74
2022/03/28 01:54:31;;;;;;;36.67;15.80;;;;;;;3.46;40.03;99386.13;4953619;28;20069;-75
2022/03/28 01:56:57;;;;;;;37.40;15.85;;;;;;;3.42;40.71;99385.75;4953730;28;20033;-75
2022/03/28 01:59:22;;;;;;;37.35;15.75;;;;;;;3.41;40.65;99386.81;4954149;28;20040;-74
2022/03/28 02:01:48;;;;;;;42.42;16.92;;;;;;;3.39;40.08;99378.88;4953750;28;20365;-75
2022/03/28 02:04:13;;;;;;;36.05;15.35;;;;;;;3.42;41.11;99372.19;4954251;28;20035;-74
2022/03/28 02:06:39;;;;;;;34.35;14.55;;;;;;;3.39;41.00;99378.06;4957654;28;20031;-74
2022/03/28 02:09:04;;;;;;;32.70;15.65;;;;;;;3.38;40.94;99379.13;4957365;28;20124;-75
2022/03/28 02:11:30;;;;;;;34.75;15.05;;;;;;;3.36;40.92;99373.09;4957414;28;20110;-74
2022/03/28 02:13:55;;;;;;;37.15;17.80;;;;;;;3.34;41.21;99372.50;4957359;28;20035;-74
2022/03/28 02:16:21;;;;;;;35.92;14.70;;;;;;;3.33;41.42;99368.94;4957703;28;20082;-74
2022/03/28 02:18:46;;;;;;;36.60;15.63;;;;;;;3.31;41.30;99373.75;4957665;28;20030;-73
2022/03/28 02:21:12;;;;;;;31.50;14.48;;;;;;;3.27;41.45;99370.69;4956283;28;20023;-75
2022/03/28 02:23:37;;;;;;;29.85;15.23;;;;;;;3.27;41.36;99367.97;4956644;28;20392;-73
2022/03/28 02:26:03;;;;;;;31.38;13.70;;;;;;;3.27;41.06;99364.41;4957423;28;20360;-73
2022/03/28 02:28:29;;;;;;;32.30;14.93;;;;;;;3.26;40.92;99374.44;4957127;28;20039;-73
2022/03/28 02:30:54;;;;;;;36.47;16.05;;;;;;;3.23;40.79;99366.75;4957629;28;20058;-70
2022/03/28 02:33:20;;;;;;;36.03;16.38;;;;;;;3.22;41.06;99365.09;4956552;28;20087;-70
2022/03/28 02:35:46;;;;;;;37.47;17.05;;;;;;;3.24;40.88;99367.59;4957559;28;20031;-70
2022/03/28 02:38:11;;;;;;;36.97;17.02;;;;;;;3.25;41.41;99375.50;4957046;28;20387;-69
2022/03/28 02:40:37;;;;;;;38.22;17.67;;;;;;;3.22;40.88;99358.88;4956975;28;20042;-70
2022/03/28 02:43:03;;;;;;;38.50;16.70;;;;;;;3.20;41.03;99367.22;4955504;28;20031;-70
2022/03/28 02:45:34;;;;;;;37.92;17.35;;;;;;;3.18;40.88;99358.47;4955075;28;20545;-70
2022/03/28 02:48:00;;;;;;;28.27;13.63;;;;;;;3.19;40.87;99357.41;4955608;28;20031;-71
2022/03/28 02:50:26;;;;;;;32.65;15.20;;;;;;;3.20;41.64;99353.66;4955523;28;20395;-71
2022/03/28 02:52:52;;;;;;;33.88;14.85;;;;;;;3.18;41.00;99355.75;4955043;28;20450;-71
2022/03/28 02:55:17;;;;;;;29.40;13.50;;;;;;;3.20;41.07;99358.25;4955319;28;20174;-71
2022/03/28 02:57:43;;;;;;;33.63;14.98;;;;;;;3.20;40.82;99344.72;4955341;28;20107;-72
2022/03/28 03:00:10;;;;;;;27.17;12.88;;;;;;;3.20;40.72;99342.00;4954811;28;20024;-71
2022/03/28 03:02:36;;;;;;;28.95;13.95;;;;;;;3.16;40.70;99346.22;4954398;28;20427;-71
2022/03/28 03:05:01;;;;;;;26.83;13.35;;;;;;;3.13;41.12;99336.63;4954405;28;20034;-71
2022/03/28 03:07:26;;;;;;;28.45;12.77;;;;;;;3.12;41.14;99334.97;4954626;28;20039;-71
2022/03/28 03:09:52;;;;;;;29.45;13.07;;;;;;;3.11;41.38;99328.72;4953902;28;20027;-71
2022/03/28 03:12:17;;;;;;;29.15;12.38;;;;;;;3.12;41.00;99332.25;4953660;28;20027;-72
2022/03/28 03:14:43;;;;;;;29.27;13.10;;;;;;;3.12;41.00;99321.41;4955561;28;20034;-71
2022/03/28 03:17:08;;;;;;;28.23;13.38;;;;;;;3.11;41.72;99317.91;4955439;28;20062;-71
2022/03/28 03:19:34;;;;;;;33.38;13.80;;;;;;;3.07;42.11;99332.94;4956602;28;20098;-72
2022/03/28 03:21:59;;;;;;;39.55;16.85;;;;;;;3.07;41.98;99323.97;4956002;28;20027;-72
2022/03/28 03:24:25;;;;;;;33.10;14.05;;;;;;;3.06;41.42;99325.03;4954735;28;20035;-71
2022/03/28 03:26:50;;;;;;;33.90;13.80;;;;;;;3.00;41.27;99321.34;4956260;28;20031;-71
2022/03/28 03:29:15;;;;;;;30.17;14.07;;;;;;;2.96;42.41;99326.41;4955957;28;20031;-71
2022/03/28 03:31:41;;;;;;;31.85;14.40;;;;;;;2.92;42.28;99325.19;4955790;28;20057;-72
2022/03/28 03:34:07;;;;;;;33.47;14.45;;;;;;;2.89;42.43;99325.63;4955794;28;20059;-72
2022/03/28 03:36:33;;;;;;;34.97;13.77;;;;;;;2.86;42.04;99327.94;4955964;28;20024;-71
2022/03/28 03:38:58;;;;;;;31.75;14.27;;;;;;;2.83;42.82;99327.38;4954717;28;20460;-72
2022/03/28 03:41:24;;;;;;;32.13;14.90;;;;;;;2.82;41.97;99327.56;4955885;28;20035;-72
2022/03/28 03:43:50;;;;;;;30.30;13.82;;;;;;;2.81;42.12;99332.19;4955522;28;20023;-71
2022/03/28 03:46:15;;;;;;;30.17;14.10;;;;;;;2.80;42.76;99319.69;4955779;28;20035;-71
2022/03/28 03:48:40;;;;;;;34.15;14.68;;;;;;;2.81;43.07;99320.50;4955823;28;20050;-72
2022/03/28 03:51:06;;;;;;;30.00;13.95;;;;;;;2.79;43.11;99320.75;4955157;28;20031;-71
2022/03/28 03:53:31;;;;;;;30.90;13.68;;;;;;;2.78;42.98;99315.53;4954747;28;20468;-72
2022/03/28 03:55:57;;;;;;;29.85;13.60;;;;;;;2.78;42.80;99315.53;4959432;28;20031;-71
2022/03/28 03:58:22;;;;;;;28.48;12.88;;;;;;;2.75;43.11;99321.41;4955442;28;20035;-71
2022/03/28 04:00:48;;;;;;;26.27;13.32;;;;;;;2.73;43.12;99313.50;4955928;28;20115;-72
2022/03/28 04:03:13;;;;;;;29.45;14.18;;;;;;;2.71;43.29;99318.31;4954866;28;20231;-72
2022/03/28 04:05:39;;;;;;;32.78;13.90;;;;;;;2.69;43.26;99320.41;4954990;28;20119;-71
2022/03/28 04:08:05;;;;;;;32.25;14.20;;;;;;;2.70;43.25;99321.22;4954474;28;20050;-71
2022/03/28 04:10:31;;;;;;;28.30;13.30;;;;;;;2.70;42.66;99313.09;4954301;28;20091;-71
2022/03/28 04:12:57;;;;;;;28.85;12.98;;;;;;;2.71;43.45;99312.06;4961688;28;20399;-71
2022/03/28 04:15:23;;;;;;;23.27;11.15;;;;;;;2.72;43.25;99316.41;4974710;28;20033;-71
2022/03/28 04:17:48;;;;;;;23.50;11.05;;;;;;;2.73;42.31;99318.09;4974916;28;20040;-71
2022/03/28 04:20:15;;;;;;;25.05;12.35;;;;;;;2.72;42.37;99314.56;4960593;28;20082;-71
2022/03/28 04:22:42;;;;;;;27.13;12.55;;;;;;;2.71;43.33;99312.06;4973910;28;20138;-71
2022/03/28 04:25:09;;;;;;;26.88;12.07;;;;;;;2.71;42.75;99312.06;4972463;28;20034;-70
2022/03/28 04:27:36;;;;;;;28.00;14.15;;;;;;;2.70;42.91;99304.97;4954301;28;20034;-70
2022/03/28 04:30:07;;;;;;;29.35;13.07;;;;;;;2.68;43.29;99305.22;4955253;28;20039;-72
2022/03/28 04:32:33;;;;;;;24.05;10.60;;;;;;;2.69;43.37;99309.59;4954124;28;20138;-70
2022/03/28 04:34:58;;;;;;;26.80;11.25;;;;;;;2.71;43.29;99303.94;4954573;28;20483;-70
2022/03/28 04:37:24;;;;;;;24.00;12.57;;;;;;;2.73;43.44;99301.81;4954549;28;20077;-71
2022/03/28 04:39:49;;;;;;;26.55;11.98;;;;;;;2.72;43.21;99300.16;4954691;28;20054;-71
2022/03/28 04:42:15;;;;;;;26.48;11.68;;;;;;;2.72;43.35;99292.88;4953623;28;20050;-71
2022/03/28 04:44:40;;;;;;;25.60;11.82;;;;;;;2.71;43.91;99296.66;4954678;28;20474;-70
2022/03/28 04:47:06;;;;;;;25.70;11.88;;;;;;;2.72;43.65;99305.59;4954350;28;20483;-71
2022/03/28 04:49:32;;;;;;;24.15;12.32;;;;;;;2.74;43.51;99298.06;4955160;28;20125;-71
2022/03/28 04:51:57;;;;;;;28.10;11.98;;;;;;;2.76;43.56;99304.09;4953835;28;20602;-71
2022/03/28 04:54:24;;;;;;;29.42;13.10;;;;;;;2.78;43.90;99302.00;4954492;28;20052;-71
2022/03/28 04:56:50;;;;;;;28.02;12.68;;;;;;;2.78;43.08;99299.28;4954841;28;20423;-71
2022/03/28 04:59:15;;;;;;;30.38;12.43;;;;;;;2.79;43.75;99304.50;4954782;28;20034;-72
2022/03/28 05:01:41;;;;;;;31.88;13.07;;;;;;;2.81;43.54;99286.13;4954662;28;20490;-73
2022/03/28 05:04:06;;;;;;;29.60;11.93;;;;;;;2.85;43.56;99291.09;4954469;28;20023;-74
2022/03/28 05:06:32;;;;;;;27.30;13.07;;;;;;;2.90;43.96;99289.34;4954343;28;20118;-72
2022/03/28 05:08:57;;;;;;;27.73;13.88;;;;;;;2.92;43.89;99291.84;4954407;28;20134;-73
2022/03/28 05:11:23;;;;;;;25.85;12.00;;;;;;;2.97;43.19;99292.84;4954532;28;20442;-73
2022/03/28 05:13:50;;;;;;;24.75;11.38;;;;;;;3.04;43.06;99294.63;4954252;28;20031;-71
2022/03/28 05:16:16;;;;;;;25.27;11.68;;;;;;;3.08;43.82;99295.81;4954164;28;20110;-72
2022/03/28 05:18:41;;;;;;;27.02;11.98;;;;;;;3.11;43.84;99301.63;4960745;28;20699;-72
2022/03/28 05:21:06;;;;;;;31.88;19.23;;;;;;;3.19;42.97;99302.38;4972255;28;20097;-72
2022/03/28 05:23:32;;;;;;;26.35;12.70;;;;;;;3.25;43.19;99296.06;4973323;28;20043;-72
2022/03/28 05:25:58;;;;;;;24.50;11.05;;;;;;;3.32;43.23;99296.78;4973740;28;20031;-70
2022/03/28 05:28:23;;;;;;;26.98;11.98;;;;;;;3.37;43.37;99294.22;4966301;28;20372;-70
2022/03/28 05:30:49;;;;;;;26.25;12.73;;;;;;;3.42;42.88;99293.56;4953142;28;20483;-70
2022/03/28 05:33:14;;;;;;;27.40;13.15;;;;;;;3.48;43.88;99289.91;4951732;28;20678;-70
2022/03/28 05:35:43;;;;;;;33.65;15.13;;;;;;;3.49;42.97;99286.13;4951058;28;20023;-73
2022/03/28 05:38:09;;;;;;;31.88;14.45;;;;;;;3.54;43.00;99290.88;4968146;28;20480;-72
2022/03/28 05:40:34;;;;;;;27.88;12.35;;;;;;;3.59;43.24;99291.03;4955177;28;20035;-72
2022/03/28 05:43:01;;;;;;;23.30;11.75;;;;;;;3.67;43.23;99292.59;4956768;28;20024;-73
2022/03/28 05:45:26;;;;;;;29.38;11.75;;;;;;;3.72;43.27;99290.00;4956712;28;20114;-70
2022/03/28 05:47:52;;;;;;;26.85;12.45;;;;;;;3.80;43.54;99288.84;4956189;28;20106;-73
2022/03/28 05:50:17;;;;;;;28.58;12.57;;;;;;;3.85;43.02;99288.97;4957940;28;20028;-72
2022/03/28 05:52:43;;;;;;;34.13;13.32;;;;;;;3.91;42.82;99287.22;4956586;28;20039;-72
2022/03/28 05:55:08;;;;;;;24.85;12.27;;;;;;;3.97;43.32;99286.28;4956619;28;20027;-72
2022/03/28 05:57:34;;;;;;;29.75;12.10;;;;;;;4.05;43.07;99285.16;4956952;28;20023;-74
2022/03/28 06:00:00;;;;;;;26.80;12.13;;;;;;;4.10;43.13;99288.81;4954455;28;20093;-72
2022/03/28 06:02:26;;;;;;;26.02;12.05;;;;;;;4.15;42.37;99278.09;4956493;28;20383;-72
2022/03/28 06:04:51;;;;;;;28.33;12.02;;;;;;;4.24;43.09;99277.75;4957790;28;20023;-72
2022/03/28 06:07:17;;;;;;;28.15;11.80;;;;;;;4.31;42.69;99273.84;4957084;28;20037;-72
2022/03/28 06:09:42;;;;;;;30.48;13.43;;;;;;;4.41;42.19;99278.69;4957597;28;20122;-73
2022/03/28 06:12:08;;;;;;;33.00;13.73;;;;;;;4.52;42.24;99282.47;4955679;28;20031;-73
2022/03/28 06:14:34;;;;;;;25.27;11.50;;;;;;;4.63;41.93;99275.41;4956316;28;20062;-73
2022/03/28 06:16:59;;;;;;;25.40;11.60;;;;;;;4.75;42.49;99284.34;4957125;28;20086;-73
2022/03/28 06:19:25;;;;;;;28.80;11.40;;;;;;;4.87;42.45;99268.06;4957287;28;20062;-73
2022/03/28 06:21:50;;;;;;;22.38;11.20;;;;;;;4.98;42.26;99276.41;4955802;28;20027;-73
2022/03/28 06:24:16;;;;;;;23.67;11.30;;;;;;;5.07;41.53;99267.66;4956394;28;20037;-73
2022/03/28 06:26:41;;;;;;;25.45;11.95;;;;;;;5.18;41.98;99265.97;4957305;28;20128;-73
2022/03/28 06:29:09;;;;;;;20.77;11.27;;;;;;;5.29;41.15;99264.28;4957581;28;20038;-72
2022/03/28 06:31:34;;;;;;;26.95;13.15;;;;;;;5.42;41.00;99262.34;4955322;28;20386;-72
2022/03/28 06:34:02;;;;;;;24.13;12.32;;;;;;;5.54;40.92;99257.66;4951921;28;20020;-73
2022/03/28 06:36:29;;;;;;;28.02;11.57;;;;;;;5.63;40.69;99248.03;4955102;28;20130;-74
2022/03/28 06:38:55;;;;;;;29.08;12.98;;;;;;;5.76;41.16;99251.53;4955452;28;20077;-73
2022/03/28 06:41:21;;;;;;;23.27;10.77;;;;;;;5.90;40.87;99247.44;4955345;28;20419;-74
2022/03/28 06:43:47;;;;;;;32.92;13.75;;;;;;;6.03;40.63;99251.78;4954595;28;20498;-73
2022/03/28 06:46:13;;;;;;;22.90;11.45;;;;;;;6.16;40.60;99250.63;4955488;28;20061;-73
2022/03/28 06:48:39;;;;;;;24.10;12.38;;;;;;;6.31;40.43;99246.50;4956775;28;20039;-73
2022/03/28 06:51:06;;;;;;;24.52;12.15;;;;;;;6.48;40.78;99243.75;4956280;28;20030;-70
2022/03/28 06:53:31;;;;;;;23.65;11.43;;;;;;;6.65;40.21;99246.44;4956369;28;20031;-71
2022/03/28 06:55:57;;;;;;;26.73;12.13;;;;;;;6.84;40.12;99236.88;4955327;28;20078;-72
2022/03/28 06:58:23;;;;;;;23.63;11.10;;;;;;;7.00;39.21;99232.44;4955338;28;20039;-71
2022/03/28 07:00:49;;;;;;;24.77;12.32;;;;;;;7.17;39.33;99241.63;4956102;28;20038;-71
2022/03/28 07:03:14;;;;;;;24.30;11.40;;;;;;;7.30;39.52;99239.38;4955859;28;20043;-70
2022/03/28 07:05:39;;;;;;;23.90;12.18;;;;;;;7.44;39.33;99228.03;4955422;28;20027;-72
2022/03/28 07:08:05;;;;;;;25.83;12.50;;;;;;;7.60;39.67;99213.47;4954142;28;20078;-71
2022/03/28 07:10:30;;;;;;;25.48;12.00;;;;;;;7.73;39.40;99217.69;4956599;28;20027;-73
2022/03/28 07:12:56;;;;;;;24.55;12.05;;;;;;;7.86;39.22;99218.34;4956061;28;20027;-73
2022/03/28 07:15:21;;;;;;;22.05;11.23;;;;;;;7.97;38.97;99220.06;4974293;28;20030;-74
2022/03/28 07:17:52;;;;;;;24.98;12.05;;;;;;;8.10;38.22;99221.56;4975397;28;20370;-73
2022/03/28 07:20:20;;;;;;;28.48;11.73;;;;;;;8.19;38.53;99219.16;4974453;28;20101;-72
2022/03/28 07:22:46;;;;;;;21.10;9.50;;;;;;;8.32;38.82;99213.25;4975100;28;20041;-73
2022/03/28 07:25:11;;;;;;;29.02;13.75;;;;;;;8.43;38.35;99205.94;4975929;28;20030;-73
2022/03/28 07:27:38;;;;;;;29.63;11.75;;;;;;;8.58;38.41;99209.88;4975300;28;20023;-72
2022/03/28 07:30:05;;;;;;;21.52;10.80;;;;;;;8.68;38.34;99211.84;4975552;28;20479;-71
2022/03/28 07:32:30;;;;;;;25.30;11.20;;;;;;;8.83;37.88;99198.25;4974827;28;20379;-72
2022/03/28 07:34:56;;;;;;;28.90;11.80;;;;;;;8.92;37.56;99204.84;4975507;28;20026;-72
2022/03/28 07:37:22;;;;;;;25.52;11.93;;;;;;;9.03;37.47;99200.25;4975396;28;20095;-73
2022/03/28 07:39:48;;;;;;;29.30;12.02;;;;;;;9.16;38.27;99198.09;4974969;28;20034;-71
2022/03/28 07:42:13;;;;;;;28.65;12.75;;;;;;;9.27;37.87;99199.78;4973503;28;20035;-71
2022/03/28 07:44:41;;;;;;;26.60;12.55;;;;;;;9.39;37.71;99186.66;4956301;28;20154;-72
2022/03/28 07:47:08;;;;;;;28.63;12.45;;;;;;;9.49;37.45;99183.16;4955936;28;20046;-72
2022/03/28 07:49:38;;;;;;;25.10;10.38;;;;;;;9.63;37.32;99188.06;4955733;28;20038;-72
2022/03/28 07:52:06;;;;;;;25.83;12.23;;;;;;;9.74;37.06;99181.53;4955312;28;20155;-73
2022/03/28 07:54:32;;;;;;;20.27;10.45;;;;;;;9.88;37.63;99181.00;4955784;28;20027;-74
2022/03/28 07:56:58;;;;;;;21.13;9.98;;;;;;;9.98;37.25;99176.31;4955691;28;20476;-72
2022/03/28 07:59:23;;;;;;;25.58;12.25;;;;;;;10.04;36.64;99177.13;4955500;28;20031;-72
2022/03/28 08:01:50;;;;;;;22.42;10.57;;;;;;;10.12;36.60;99170.28;4955137;28;20027;-72
2022/03/28 08:04:15;;;;;;;19.25;9.13;;;;;;;10.24;36.93;99165.31;4954944;28;20467;-72
2022/03/28 08:06:40;;;;;;;21.65;10.02;;;;;;;10.34;36.82;99164.50;4954949;28;20019;-72
2022/03/28 08:09:06;;;;;;;21.42;10.43;;;;;;;10.42;35.98;99166.69;4954181;28;20047;-72
2022/03/28 08:11:31;;;;;;;18.88;9.50;;;;;;;10.55;35.81;99161.72;4954951;28;20027;-72
2022/03/28 08:13:57;;;;;;;19.92;9.05;;;;;;;10.65;35.45;99158.97;4954627;28;20034;-71
2022/03/28 08:16:22;;;;;;;19.80;9.63;;;;;;;10.76;35.77;99145.22;4954820;28;20535;-73
2022/03/28 08:18:48;;;;;;;23.23;9.77;;;;;;;10.87;35.78;99135.81;4955019;28;20467;-72
2022/03/28 08:21:13;;;;;;;29.92;12.40;;;;;;;10.97;35.43;99140.44;4955305;28;20027;-73
2022/03/28 08:23:39;;;;;;;19.67;9.60;;;;;;;11.02;35.54;99124.75;4954888;28;20031;-73
2022/03/28 08:26:05;;;;;;;22.45;11.00;;;;;;;11.13;36.04;99131.00;4951499;28;20394;-74
2022/03/28 08:28:31;;;;;;;22.02;11.60;;;;;;;11.22;35.58;99123.00;4954156;28;20035;-73
2022/03/28 08:30:57;;;;;;;24.65;11.95;;;;;;;11.32;34.92;99117.44;4954824;28;20053;-74
2022/03/28 08:33:22;;;;;;;25.52;11.43;;;;;;;11.38;36.05;99110.00;4954956;28;20035;-72
2022/03/28 08:35:48;;;;;;;22.15;10.63;;;;;;;11.51;35.64;99113.19;4956591;28;20114;-75
2022/03/28 08:38:13;;;;;;;22.20;10.38;;;;;;;11.62;35.21;99114.75;4954095;28;20035;-74
2022/03/28 08:40:43;;;;;;;22.45;10.73;;;;;;;11.71;35.32;99098.47;4954505;28;20030;-73
2022/03/28 08:43:08;;;;;;;21.52;10.75;;;;;;;11.80;34.54;99099.50;4954380;28;20050;-74
2022/03/28 08:45:37;;;;;;;19.33;9.23;;;;;;;11.87;35.17;99096.41;4954938;28;20035;-73
2022/03/28 08:48:05;;;;;;;18.03;8.60;;;;;;;11.95;35.31;99087.53;4954699;28;20059;-73
2022/03/28 08:50:33;;;;;;;14.15;7.70;;;;;;;12.02;34.77;99087.25;4954239;28;20097;-73
2022/03/28 08:52:59;;;;;;;19.15;8.10;;;;;;;12.14;35.44;99093.16;4962525;28;20048;-73
2022/03/28 08:55:24;;;;;;;13.65;6.97;;;;;;;12.26;34.65;99087.25;4963083;28;20535;-72
2022/03/28 08:57:50;;;;;;;11.48;6.40;;;;;;;12.39;34.43;99090.41;4954475;28;20039;-74
2022/03/28 09:00:16;;;;;;;12.50;6.97;;;;;;;12.51;33.86;99077.88;4954674;28;20031;-73
2022/03/28 09:02:47;;;;;;;15.70;7.22;;;;;;;12.57;33.40;99075.91;4952679;28;20027;-73
2022/03/28 09:05:17;;;;;;;11.75;6.68;;;;;;;12.58;33.03;99073.94;4954173;28;20027;-73
2022/03/28 09:07:43;;;;;;;11.82;6.60;;;;;;;12.63;33.21;99062.88;4951178;28;20523;-73
2022/03/28 09:10:17;;;;;;;27.70;15.18;;;;;;;12.75;34.25;99060.53;4954408;28;20031;-73
2022/03/28 09:13:05;;;;;;;20.80;13.32;;;;;;;12.87;33.67;99057.34;4954180;28;20545;-72
2022/03/28 09:15:58;;;;;;;14.13;7.25;;;;;;;13.01;33.57;99056.59;4953925;28;20484;-71
2022/03/28 09:18:30;;;;;;;14.88;7.95;;;;;;;13.07;33.98;99049.88;4951273;28;20035;-74
2022/03/28 09:21:02;;;;;;;16.13;8.18;;;;;;;13.22;33.63;99038.63;4954066;28;20034;-74
2022/03/28 09:23:42;;;;;;;16.08;8.00;;;;;;;13.34;33.81;99043.69;4954134;28;20082;-73
2022/03/28 09:26:22;;;;;;;14.23;6.95;;;;;;;13.50;33.15;99047.03;4954491;28;20039;-72
2022/03/28 09:29:03;;;;;;;15.27;7.53;;;;;;;13.61;33.48;99046.84;4954334;28;20059;-74
2022/03/28 09:31:39;;;;;;;12.75;7.15;;;;;;;13.69;33.18;99044.22;4953991;28;20063;-74
2022/03/28 09:34:07;;;;;;;19.02;11.00;;;;;;;13.76;33.01;99031.97;4953391;28;20015;-73
2022/03/28 09:36:56;;;;;;;14.13;7.57;;;;;;;13.93;33.23;99034.16;4953713;28;20031;-74
2022/03/28 09:39:24;;;;;;;14.10;6.90;;;;;;;14.01;32.83;99038.97;4950837;28;20034;-75
2022/03/28 09:42:10;;;;;;;9.93;6.47;;;;;;;14.13;32.98;99036.53;4953817;28;20110;-74
2022/03/28 09:44:38;;;;;;;12.38;6.88;;;;;;;14.21;33.06;99023.16;4953828;28;20058;-73
2022/03/28 09:47:08;;;;;;;10.40;5.78;;;;;;;14.32;33.32;99021.00;4952627;28;20026;-73
2022/03/28 09:49:35;;;;;;;14.70;7.15;;;;;;;14.39;32.69;99015.91;4953934;28;20031;-73
2022/03/28 09:52:08;;;;;;;11.63;6.60;;;;;;;14.40;32.52;99009.25;4952385;28;20390;-73
2022/03/28 09:55:00;;;;;;;15.48;7.63;;;;;;;14.46;32.34;99008.03;4953980;28;20459;-73
2022/03/28 09:57:34;;;;;;;12.20;6.45;;;;;;;14.54;31.85;99014.75;4954044;28;20034;-72
2022/03/28 10:00:13;;;;;;;11.35;6.07;;;;;;;14.51;31.72;98998.81;4953929;28;20023;-73
2022/03/28 10:02:39;;;;;;;10.27;6.30;;;;;;;14.55;32.19;99006.13;4953469;28;20082;-73
2022/03/28 10:05:05;;;;;;;8.00;5.57;;;;;;;14.62;32.15;98993.88;4953924;28;20031;-73
2022/03/28 10:07:32;;;;;;;11.45;6.40;;;;;;;14.72;32.56;98993.69;4952615;28;20492;-73
2022/03/28 10:09:59;;;;;;;11.27;6.38;;;;;;;14.81;32.34;98991.81;4954063;28;20027;-72
2022/03/28 10:12:25;;;;;;;11.48;6.43;;;;;;;14.84;31.89;98977.38;4952864;28;20444;-72
2022/03/28 10:15:00;;;;;;;11.65;6.63;;;;;;;14.81;31.80;98978.00;4969681;28;20055;-72
2022/03/28 10:17:31;;;;;;;12.73;6.57;;;;;;;14.94;32.09;98972.72;4973288;28;20045;-73
2022/03/28 10:19:57;;;;;;;10.52;6.43;;;;;;;15.01;31.29;98964.81;4970239;28;20030;-72
2022/03/28 10:22:36;;;;;;;10.88;6.60;;;;;;;15.05;31.55;98954.78;4972432;28;20023;-72
2022/03/28 10:25:08;;;;;;;10.75;6.40;;;;;;;15.13;31.73;98967.84;4973656;28;20027;-72
2022/03/28 10:27:36;;;;;;;14.45;6.65;;;;;;;15.19;31.41;98963.00;4975583;28;20026;-72
2022/03/28 10:30:11;;;;;;;13.98;6.72;;;;;;;15.26;31.97;98959.81;4976666;28;20034;-73
2022/03/28 10:32:37;;;;;;;10.45;6.05;;;;;;;15.31;31.51;98948.59;4975744;28;20475;-72
2022/03/28 10:35:07;;;;;;;10.52;5.97;;;;;;;15.32;31.32;98948.31;4991460;28;20033;-73
2022/03/28 10:37:32;;;;;;;;;;;;;;;15.36;30.96;98939.38;4977046;28;20131;-73
2022/03/28 10:40:19;;;;;;;10.07;6.38;;;;;;;15.39;31.75;98947.84;4975439;28;20009;-72
2022/03/28 10:43:00;;;;;;;9.70;5.72;;;;;;;15.48;31.25;98945.97;4975757;28;20475;-77
2022/03/28 10:45:35;;;;;;;9.38;5.70;;;;;;;15.57;31.08;98929.41;4976769;28;20034;-74
2022/03/28 10:48:01;;;;;;;11.32;5.75;;;;;;;15.66;31.04;98928.63;4976510;28;20031;-72
2022/03/28 10:50:42;;;;;;;11.60;6.60;;;;;;;15.80;31.19;98923.00;4976419;28;20107;-73
2022/03/28 10:53:14;;;;;;;11.02;6.63;;;;;;;15.88;31.15;98908.41;4975513;28;20085;-73
2022/03/28 10:55:47;;;;;;;9.63;6.32;;;;;;;15.99;30.40;98914.47;4976198;28;20034;-73
2022/03/28 10:58:17;;;;;;;11.55;5.80;;;;;;;15.99;30.44;98908.94;4976072;28;20019;-73
2022/03/28 11:01:00;;;;;;;;;;;;;;;15.94;30.89;98901.59;4976638;28;20023;-73
2022/03/28 11:03:47;;;;;;;10.23;6.07;;;;;;;15.97;30.39;98887.13;4969026;28;19918;-74
2022/03/28 11:06:45;;;;;;;10.57;6.78;;;;;;;16.14;30.69;98882.75;4956811;28;20042;-73
2022/03/28 11:09:11;;;;;;;10.27;5.78;;;;;;;16.25;29.91;98886.03;4939582;28;20051;-73
2022/03/28 11:11:55;;;;;;;11.35;6.22;;;;;;;16.33;30.01;98879.69;4955647;28;20810;-73
2022/03/28 11:14:44;;;;;;;14.45;6.22;;;;;;;16.33;29.89;98869.44;4955910;28;20046;-73
2022/03/28 11:17:17;;;;;;;11.55;7.05;;;;;;;16.37;29.76;98872.38;4955424;28;20061;-73
2022/03/28 11:20:09;;;;;;;12.23;6.50;;;;;;;16.46;29.60;98862.13;4955035;28;20035;-73
2022/03/28 11:22:41;;;;;;;10.23;6.18;;;;;;;16.60;29.21;98867.47;4953080;28;20027;-74
2022/03/28 11:25:33;;;;;;;13.52;6.72;;;;;;;16.70;29.24;98863.59;4955786;28;20027;-74
2022/03/28 11:28:05;;;;;;;12.13;6.72;;;;;;;16.71;29.41;98856.88;4956011;28;20668;-73
2022/03/28 11:30:31;;;;;;;10.75;6.85;;;;;;;16.77;29.58;98850.03;4956562;28;20027;-74